sensor_id;sensor_type;location;lat;lon;timestamp;pressure;altitude;pressure_sealevel;temperature;humidity
68988;BME280;56038;46.080;11.116;2023-07-02T00:04:42;98579.94;;;23.61;70.50
68988;BME280;56038;46.080;11.116;2023-07-02T00:09:43;98580.81;;;23.27;71.95
68988;BME280;56038;46.080;11.116;2023-07-02T00:14:45;98583.16;;;23.30;71.67
68988;BME280;56038;46.080;11.116;2023-07-02T00:19:48;98576.47;;;23.26;71.92
68988;BME280;56038;46.080;11.116;2023-07-02T00:24:51;98562.97;;;23.20;71.92
68988;BME280;56038;46.080;11.116;2023-07-02T00:29:56;98569.66;;;23.32;71.25
68988;BME280;56038;46.080;11.116;2023-07-02T00:34:59;98567.44;;;23.19;71.71
68988;BME280;56038;46.080;11.116;2023-07-02T00:40:01;98580.56;;;22.79;73.52
68988;BME280;56038;46.080;11.116;2023-07-02T00:45:04;98581.72;;;22.76;73.66
68988;BME280;56038;46.080;11.116;2023-07-02T00:50:09;98581.78;;;22.84;73.10
68988;BME280;56038;46.080;11.116;2023-07-02T00:55:11;98580.34;;;22.72;75.74
68988;BME280;56038;46.080;11.116;2023-07-02T01:00:13;98587.84;;;22.94;72.94
68988;BME280;56038;46.080;11.116;2023-07-02T01:05:17;98589.25;;;23.15;72.37
68988;BME280;56038;46.080;11.116;2023-07-02T01:10:22;98585.31;;;22.67;74.22
68988;BME280;56038;46.080;11.116;2023-07-02T01:15:23;98584.47;;;22.66;74.31
68988;BME280;56038;46.080;11.116;2023-07-02T01:20:27;98592.72;;;23.07;72.80
68988;BME280;56038;46.080;11.116;2023-07-02T01:25:30;98599.06;;;23.14;72.32
68988;BME280;56038;46.080;11.116;2023-07-02T01:30:36;98590.53;;;23.02;72.76
68988;BME280;56038;46.080;11.116;2023-07-02T01:35:39;98584.28;;;22.86;73.50
68988;BME280;56038;46.080;11.116;2023-07-02T01:40:41;98576.84;;;22.71;73.90
68988;BME280;56038;46.080;11.116;2023-07-02T01:45:43;98579.63;;;22.88;73.03
68988;BME280;56038;46.080;11.116;2023-07-02T01:50:46;98585.06;;;23.04;72.69
68988;BME280;56038;46.080;11.116;2023-07-02T01:55:48;98591.88;;;22.73;74.04
68988;BME280;56038;46.080;11.116;2023-07-02T02:00:49;98585.13;;;22.60;74.26
68988;BME280;56038;46.080;11.116;2023-07-02T02:05:52;98589.59;;;22.86;73.37
68988;BME280;56038;46.080;11.116;2023-07-02T02:10:54;98591.34;;;23.03;72.83
68988;BME280;56038;46.080;11.116;2023-07-02T02:15:56;98597.56;;;23.12;72.38
68988;BME280;56038;46.080;11.116;2023-07-02T02:20:59;98605.63;;;23.20;72.12
68988;BME280;56038;46.080;11.116;2023-07-02T02:26:01;98597.16;;;23.33;71.68
68988;BME280;56038;46.080;11.116;2023-07-02T02:31:02;98602.00;;;23.37;71.57
68988;BME280;56038;46.080;11.116;2023-07-02T02:36:06;98599.13;;;23.30;71.93
68988;BME280;56038;46.080;11.116;2023-07-02T02:41:08;98594.66;;;22.97;73.19
68988;BME280;56038;46.080;11.116;2023-07-02T02:46:10;98595.66;;;22.96;73.14
68988;BME280;56038;46.080;11.116;2023-07-02T02:51:14;98597.41;;;23.13;72.48
68988;BME280;56038;46.080;11.116;2023-07-02T02:56:15;98602.47;;;23.24;72.45
68988;BME280;56038;46.080;11.116;2023-07-02T03:01:17;98606.50;;;23.37;71.72
68988;BME280;56038;46.080;11.116;2023-07-02T03:06:20;98620.44;;;23.22;72.63
68988;BME280;56038;46.080;11.116;2023-07-02T03:11:22;98622.81;;;22.99;73.72
68988;BME280;56038;46.080;11.116;2023-07-02T03:16:23;98618.91;;;22.86;74.21
68988;BME280;56038;46.080;11.116;2023-07-02T03:21:28;98619.63;;;22.96;73.89
68988;BME280;56038;46.080;11.116;2023-07-02T03:26:30;98615.03;;;23.06;73.21
68988;BME280;56038;46.080;11.116;2023-07-02T03:31:32;98618.22;;;23.10;73.53
68988;BME280;56038;46.080;11.116;2023-07-02T03:36:35;98622.44;;;23.20;72.69
68988;BME280;56038;46.080;11.116;2023-07-02T03:41:36;98634.47;;;23.33;72.58
68988;BME280;56038;46.080;11.116;2023-07-02T03:46:38;98635.19;;;23.43;72.22
68988;BME280;56038;46.080;11.116;2023-07-02T03:51:41;98640.84;;;23.48;71.99
68988;BME280;56038;46.080;11.116;2023-07-02T03:56:43;98645.16;;;23.41;72.32
68988;BME280;56038;46.080;11.116;2023-07-02T04:01:45;98643.19;;;22.83;74.74
68988;BME280;56038;46.080;11.116;2023-07-02T04:06:48;98650.19;;;23.10;73.67
68988;BME280;56038;46.080;11.116;2023-07-02T04:11:50;98653.72;;;23.18;73.43
68988;BME280;56038;46.080;11.116;2023-07-02T04:16:51;98671.38;;;23.19;73.32
68988;BME280;56038;46.080;11.116;2023-07-02T04:21:54;98661.16;;;23.41;72.70
68988;BME280;56038;46.080;11.116;2023-07-02T04:26:56;98669.84;;;23.51;72.27
68988;BME280;56038;46.080;11.116;2023-07-02T04:32:00;98673.31;;;23.69;71.53
68988;BME280;56038;46.080;11.116;2023-07-02T04:37:04;98682.97;;;23.78;71.22
68988;BME280;56038;46.080;11.116;2023-07-02T04:42:06;98687.13;;;23.73;71.57
68988;BME280;56038;46.080;11.116;2023-07-02T04:47:10;98690.31;;;23.76;72.33
68988;BME280;56038;46.080;11.116;2023-07-02T04:52:13;98697.25;;;23.61;71.87
68988;BME280;56038;46.080;11.116;2023-07-02T04:57:15;98692.13;;;23.68;71.54
68988;BME280;56038;46.080;11.116;2023-07-02T05:02:16;98690.03;;;23.53;72.11
68988;BME280;56038;46.080;11.116;2023-07-02T05:07:20;98697.34;;;23.17;72.85
68988;BME280;56038;46.080;11.116;2023-07-02T05:12:22;98696.97;;;23.12;73.05
68988;BME280;56038;46.080;11.116;2023-07-02T05:17:24;98702.09;;;23.31;72.58
68988;BME280;56038;46.080;11.116;2023-07-02T05:22:28;98704.97;;;23.72;71.53
68988;BME280;56038;46.080;11.116;2023-07-02T05:27:29;98705.72;;;23.99;70.23
68988;BME280;56038;46.080;11.116;2023-07-02T05:32:34;98698.06;;;24.12;69.70
68988;BME280;56038;46.080;11.116;2023-07-02T05:37:37;98697.19;;;23.87;70.59
68988;BME280;56038;46.080;11.116;2023-07-02T05:42:39;98692.81;;;24.36;69.38
68988;BME280;56038;46.080;11.116;2023-07-02T05:47:40;98686.81;;;24.67;67.99
68988;BME280;56038;46.080;11.116;2023-07-02T05:52:43;98683.94;;;24.76;67.39
68988;BME280;56038;46.080;11.116;2023-07-02T05:57:45;98681.97;;;24.78;67.36
68988;BME280;56038;46.080;11.116;2023-07-02T06:02:47;98680.13;;;24.79;67.13
68988;BME280;56038;46.080;11.116;2023-07-02T06:07:50;98685.63;;;24.61;67.89
68988;BME280;56038;46.080;11.116;2023-07-02T06:12:52;98683.28;;;24.83;67.33
68988;BME280;56038;46.080;11.116;2023-07-02T06:17:54;98677.44;;;24.71;67.36
68988;BME280;56038;46.080;11.116;2023-07-02T06:22:57;98690.31;;;24.35;67.76
68988;BME280;56038;46.080;11.116;2023-07-02T06:27:59;98689.09;;;24.21;68.18
68988;BME280;56038;46.080;11.116;2023-07-02T06:33:01;98684.47;;;24.31;67.70
68988;BME280;56038;46.080;11.116;2023-07-02T06:38:04;98688.63;;;24.34;67.47
68988;BME280;56038;46.080;11.116;2023-07-02T06:43:06;98689.75;;;24.23;67.41
68988;BME280;56038;46.080;11.116;2023-07-02T06:48:08;98689.59;;;24.16;67.83
68988;BME280;56038;46.080;11.116;2023-07-02T06:53:11;98682.75;;;24.22;67.63
68988;BME280;56038;46.080;11.116;2023-07-02T06:58:13;98688.13;;;24.30;67.45
68988;BME280;56038;46.080;11.116;2023-07-02T07:03:16;98690.63;;;24.32;67.17
68988;BME280;56038;46.080;11.116;2023-07-02T07:08:19;98684.13;;;24.34;67.38
68988;BME280;56038;46.080;11.116;2023-07-02T07:13:21;98685.31;;;24.48;66.86
68988;BME280;56038;46.080;11.116;2023-07-02T07:18:22;98678.78;;;24.51;66.73
68988;BME280;56038;46.080;11.116;2023-07-02T07:23:26;98676.63;;;24.78;65.78
68988;BME280;56038;46.080;11.116;2023-07-02T07:28:27;98673.41;;;24.99;65.13
68988;BME280;56038;46.080;11.116;2023-07-02T07:33:29;98672.44;;;25.00;64.53
68988;BME280;56038;46.080;11.116;2023-07-02T07:38:32;98663.22;;;25.11;64.16
68988;BME280;56038;46.080;11.116;2023-07-02T07:43:34;98666.34;;;25.23;63.58
68988;BME280;56038;46.080;11.116;2023-07-02T07:48:36;98659.94;;;25.40;63.40
68988;BME280;56038;46.080;11.116;2023-07-02T07:53:39;98653.78;;;25.31;63.64
68988;BME280;56038;46.080;11.116;2023-07-02T07:58:41;98659.84;;;25.64;62.59
68988;BME280;56038;46.080;11.116;2023-07-02T08:03:42;98647.13;;;25.97;61.38
68988;BME280;56038;46.080;11.116;2023-07-02T08:08:46;98645.97;;;26.23;60.73
68988;BME280;56038;46.080;11.116;2023-07-02T08:13:47;98649.53;;;26.61;59.81
68988;BME280;56038;46.080;11.116;2023-07-02T08:18:49;98647.69;;;26.76;59.20
68988;BME280;56038;46.080;11.116;2023-07-02T08:23:52;98637.81;;;26.77;58.79
68988;BME280;56038;46.080;11.116;2023-07-02T08:28:54;98641.56;;;27.05;58.33
68988;BME280;56038;46.080;11.116;2023-07-02T08:33:56;98633.34;;;27.36;57.72
68988;BME280;56038;46.080;11.116;2023-07-02T08:38:59;98629.06;;;27.27;56.67
68988;BME280;56038;46.080;11.116;2023-07-02T08:44:01;98635.75;;;27.31;55.49
68988;BME280;56038;46.080;11.116;2023-07-02T08:49:04;98627.59;;;27.10;56.09
68988;BME280;56038;46.080;11.116;2023-07-02T08:54:08;98627.97;;;27.07;56.71
68988;BME280;56038;46.080;11.116;2023-07-02T08:59:10;98627.13;;;27.36;55.91
68988;BME280;56038;46.080;11.116;2023-07-02T09:04:15;98625.56;;;27.41;55.79
68988;BME280;56038;46.080;11.116;2023-07-02T09:09:18;98619.97;;;27.72;55.73
68988;BME280;56038;46.080;11.116;2023-07-02T09:14:24;98620.41;;;27.61;53.27
68988;BME280;56038;46.080;11.116;2023-07-02T09:19:26;98612.41;;;27.97;53.54
68988;BME280;56038;46.080;11.116;2023-07-02T09:24:30;98615.03;;;27.76;52.44
68988;BME280;56038;46.080;11.116;2023-07-02T09:29:33;98603.81;;;28.09;53.04
68988;BME280;56038;46.080;11.116;2023-07-02T09:34:36;98602.69;;;28.67;51.70
68988;BME280;56038;46.080;11.116;2023-07-02T09:39:39;98600.66;;;28.97;50.50
68988;BME280;56038;46.080;11.116;2023-07-02T09:44:41;98597.41;;;29.08;49.97
68988;BME280;56038;46.080;11.116;2023-07-02T09:49:49;98603.22;;;29.18;48.79
68988;BME280;56038;46.080;11.116;2023-07-02T09:54:52;98600.94;;;28.81;50.20
68988;BME280;56038;46.080;11.116;2023-07-02T09:59:54;98598.19;;;29.02;49.25
68988;BME280;56038;46.080;11.116;2023-07-02T10:04:56;98605.97;;;29.73;46.43
68988;BME280;56038;46.080;11.116;2023-07-02T10:09:59;98590.34;;;29.48;45.85
68988;BME280;56038;46.080;11.116;2023-07-02T10:15:01;98586.28;;;29.66;46.15
68988;BME280;56038;46.080;11.116;2023-07-02T10:20:05;98595.28;;;29.99;44.44
68988;BME280;56038;46.080;11.116;2023-07-02T10:25:09;98582.69;;;30.53;44.63
68988;BME280;56038;46.080;11.116;2023-07-02T10:30:11;98575.00;;;30.76;44.80
68988;BME280;56038;46.080;11.116;2023-07-02T10:35:13;98578.94;;;30.54;45.58
68988;BME280;56038;46.080;11.116;2023-07-02T10:40:17;98567.53;;;30.38;45.79
68988;BME280;56038;46.080;11.116;2023-07-02T10:45:31;98570.25;;;30.72;44.40
68988;BME280;56038;46.080;11.116;2023-07-02T10:50:33;98565.75;;;31.30;44.22
68988;BME280;56038;46.080;11.116;2023-07-02T10:55:37;98560.69;;;31.47;43.03
68988;BME280;56038;46.080;11.116;2023-07-02T11:00:45;98562.22;;;31.16;42.99
68988;BME280;56038;46.080;11.116;2023-07-02T11:05:54;98567.91;;;30.88;43.99
68988;BME280;56038;46.080;11.116;2023-07-02T11:11:06;98568.38;;;30.65;41.70
68988;BME280;56038;46.080;11.116;2023-07-02T11:16:17;98570.44;;;30.57;45.55
68988;BME280;56038;46.080;11.116;2023-07-02T11:21:19;98562.16;;;30.52;46.26
68988;BME280;56038;46.080;11.116;2023-07-02T11:26:22;98556.78;;;30.38;47.51
68988;BME280;56038;46.080;11.116;2023-07-02T11:31:25;98562.16;;;30.25;48.17
68988;BME280;56038;46.080;11.116;2023-07-02T11:36:27;98545.56;;;30.02;48.69
68988;BME280;56038;46.080;11.116;2023-07-02T11:41:37;98551.38;;;29.99;48.75
68988;BME280;56038;46.080;11.116;2023-07-02T11:46:39;98559.44;;;29.99;48.87
68988;BME280;56038;46.080;11.116;2023-07-02T11:51:42;98550.91;;;29.89;49.21
68988;BME280;56038;46.080;11.116;2023-07-02T11:56:49;98551.59;;;30.24;48.17
68988;BME280;56038;46.080;11.116;2023-07-02T12:01:51;98553.50;;;31.27;46.30
68988;BME280;56038;46.080;11.116;2023-07-02T12:06:53;98556.88;;;32.24;44.11
68988;BME280;56038;46.080;11.116;2023-07-02T12:11:56;98548.38;;;32.70;43.47
68988;BME280;56038;46.080;11.116;2023-07-02T12:16:58;98544.38;;;32.73;43.54
68988;BME280;56038;46.080;11.116;2023-07-02T12:22:00;98545.81;;;32.75;43.08
68988;BME280;56038;46.080;11.116;2023-07-02T12:27:03;98547.31;;;32.28;43.95
68988;BME280;56038;46.080;11.116;2023-07-02T12:32:06;98544.50;;;32.10;44.15
68988;BME280;56038;46.080;11.116;2023-07-02T12:37:07;98549.78;;;31.98;44.47
68988;BME280;56038;46.080;11.116;2023-07-02T12:42:11;98548.03;;;32.42;43.71
68988;BME280;56038;46.080;11.116;2023-07-02T12:47:12;98553.00;;;32.13;44.28
68988;BME280;56038;46.080;11.116;2023-07-02T12:52:14;98551.44;;;31.99;44.41
68988;BME280;56038;46.080;11.116;2023-07-02T12:57:18;98534.16;;;32.57;43.12
68988;BME280;56038;46.080;11.116;2023-07-02T13:02:20;98542.28;;;31.75;44.69
68988;BME280;56038;46.080;11.116;2023-07-02T13:07:22;98551.66;;;31.15;45.90
68988;BME280;56038;46.080;11.116;2023-07-02T13:12:27;98547.16;;;30.95;46.50
68988;BME280;56038;46.080;11.116;2023-07-02T13:17:29;98538.69;;;30.59;46.62
68988;BME280;56038;46.080;11.116;2023-07-02T13:22:31;98544.31;;;30.57;47.28
68988;BME280;56038;46.080;11.116;2023-07-02T13:27:34;98554.50;;;30.49;46.82
68988;BME280;56038;46.080;11.116;2023-07-02T13:32:36;98537.25;;;29.97;48.08
68988;BME280;56038;46.080;11.116;2023-07-02T13:37:38;98541.38;;;29.73;49.11
68988;BME280;56038;46.080;11.116;2023-07-02T13:42:41;98554.97;;;29.04;50.34
68988;BME280;56038;46.080;11.116;2023-07-02T13:47:43;98558.44;;;28.98;49.96
68988;BME280;56038;46.080;11.116;2023-07-02T13:52:45;98539.41;;;28.92;50.44
68988;BME280;56038;46.080;11.116;2023-07-02T13:57:49;98550.56;;;28.89;50.19
68988;BME280;56038;46.080;11.116;2023-07-02T14:02:53;98551.31;;;28.83;50.25
68988;BME280;56038;46.080;11.116;2023-07-02T14:07:55;98556.06;;;28.81;50.62
68988;BME280;56038;46.080;11.116;2023-07-02T14:12:57;98562.34;;;28.88;50.53
68988;BME280;56038;46.080;11.116;2023-07-02T14:18:00;98549.34;;;28.92;50.51
68988;BME280;56038;46.080;11.116;2023-07-02T14:23:01;98548.94;;;28.95;50.44
68988;BME280;56038;46.080;11.116;2023-07-02T14:28:04;98548.94;;;28.95;50.50
68988;BME280;56038;46.080;11.116;2023-07-02T14:33:07;98548.53;;;28.98;50.49
68988;BME280;56038;46.080;11.116;2023-07-02T14:38:09;98548.75;;;29.03;50.68
68988;BME280;56038;46.080;11.116;2023-07-02T14:43:10;98544.03;;;29.05;50.75
68988;BME280;56038;46.080;11.116;2023-07-02T14:48:14;98544.38;;;28.96;50.59
68988;BME280;56038;46.080;11.116;2023-07-02T14:53:16;98541.34;;;29.05;50.46
68988;BME280;56038;46.080;11.116;2023-07-02T14:58:18;98547.75;;;29.11;50.69
68988;BME280;56038;46.080;11.116;2023-07-02T15:03:22;98541.16;;;29.13;50.73
68988;BME280;56038;46.080;11.116;2023-07-02T15:08:24;98539.97;;;29.22;49.88
68988;BME280;56038;46.080;11.116;2023-07-02T15:13:26;98539.91;;;29.09;50.49
68988;BME280;56038;46.080;11.116;2023-07-02T15:18:29;98549.78;;;29.02;50.91
68988;BME280;56038;46.080;11.116;2023-07-02T15:23:31;98537.50;;;28.86;51.17
68988;BME280;56038;46.080;11.116;2023-07-02T15:28:34;98532.47;;;28.77;51.48
68988;BME280;56038;46.080;11.116;2023-07-02T15:33:38;98540.13;;;28.80;51.62
68988;BME280;56038;46.080;11.116;2023-07-02T15:38:40;98543.03;;;28.85;51.11
68988;BME280;56038;46.080;11.116;2023-07-02T15:43:43;98531.53;;;28.91;51.29
68988;BME280;56038;46.080;11.116;2023-07-02T15:48:47;98533.03;;;29.00;50.68
68988;BME280;56038;46.080;11.116;2023-07-02T15:53:50;98533.59;;;28.89;51.10
68988;BME280;56038;46.080;11.116;2023-07-02T15:58:52;98535.63;;;28.87;51.54
68988;BME280;56038;46.080;11.116;2023-07-02T16:03:55;98539.69;;;28.76;51.73
68988;BME280;56038;46.080;11.116;2023-07-02T16:08:57;98539.19;;;28.59;51.73
68988;BME280;56038;46.080;11.116;2023-07-02T16:14:00;98537.53;;;28.58;51.96
68988;BME280;56038;46.080;11.116;2023-07-02T16:19:04;98525.75;;;28.59;52.07
68988;BME280;56038;46.080;11.116;2023-07-02T16:24:08;98525.56;;;28.61;52.08
68988;BME280;56038;46.080;11.116;2023-07-02T16:29:10;98533.19;;;28.57;52.16
68988;BME280;56038;46.080;11.116;2023-07-02T16:34:14;98529.59;;;28.50;52.76
68988;BME280;56038;46.080;11.116;2023-07-02T16:39:17;98527.84;;;28.36;53.18
68988;BME280;56038;46.080;11.116;2023-07-02T16:44:21;98531.53;;;28.28;52.97
68988;BME280;56038;46.080;11.116;2023-07-02T16:49:25;98540.50;;;28.21;53.27
68988;BME280;56038;46.080;11.116;2023-07-02T16:54:28;98539.88;;;28.19;53.47
68988;BME280;56038;46.080;11.116;2023-07-02T16:59:32;98540.06;;;28.17;53.65
68988;BME280;56038;46.080;11.116;2023-07-02T17:04:38;98543.78;;;28.16;53.64
68988;BME280;56038;46.080;11.116;2023-07-02T17:09:40;98546.28;;;28.18;53.51
68988;BME280;56038;46.080;11.116;2023-07-02T17:14:47;98541.31;;;28.15;53.89
68988;BME280;56038;46.080;11.116;2023-07-02T17:19:51;98540.28;;;28.16;53.75
68988;BME280;56038;46.080;11.116;2023-07-02T17:24:54;98544.63;;;28.17;54.10
68988;BME280;56038;46.080;11.116;2023-07-02T17:30:01;98550.22;;;28.22;54.75
68988;BME280;56038;46.080;11.116;2023-07-02T17:35:05;98553.94;;;28.21;55.45
68988;BME280;56038;46.080;11.116;2023-07-02T17:40:14;98559.03;;;28.09;55.95
68988;BME280;56038;46.080;11.116;2023-07-02T17:45:15;98564.91;;;27.98;55.47
68988;BME280;56038;46.080;11.116;2023-07-02T17:50:19;98572.97;;;27.98;55.91
68988;BME280;56038;46.080;11.116;2023-07-02T17:55:21;98580.00;;;27.99;55.96
68988;BME280;56038;46.080;11.116;2023-07-02T18:00:23;98578.91;;;27.93;56.19
68988;BME280;56038;46.080;11.116;2023-07-02T18:05:33;98592.63;;;27.84;55.80
68988;BME280;56038;46.080;11.116;2023-07-02T18:10:40;98587.56;;;27.74;56.40
68988;BME280;56038;46.080;11.116;2023-07-02T18:15:44;98583.22;;;27.73;56.46
68988;BME280;56038;46.080;11.116;2023-07-02T18:20:48;98592.69;;;27.69;56.38
68988;BME280;56038;46.080;11.116;2023-07-02T18:25:54;98594.53;;;27.54;56.70
68988;BME280;56038;46.080;11.116;2023-07-02T18:30:58;98597.81;;;27.49;56.53
68988;BME280;56038;46.080;11.116;2023-07-02T18:36:01;98599.56;;;27.42;56.79
68988;BME280;56038;46.080;11.116;2023-07-02T18:41:07;98601.78;;;27.38;56.67
68988;BME280;56038;46.080;11.116;2023-07-02T18:46:10;98604.22;;;27.33;56.84
68988;BME280;56038;46.080;11.116;2023-07-02T18:51:13;98603.44;;;27.39;56.80
68988;BME280;56038;46.080;11.116;2023-07-02T18:56:15;98602.03;;;27.43;57.03
68988;BME280;56038;46.080;11.116;2023-07-02T19:01:16;98617.44;;;27.35;57.24
68988;BME280;56038;46.080;11.116;2023-07-02T19:06:20;98624.34;;;27.29;57.15
68988;BME280;56038;46.080;11.116;2023-07-02T19:11:22;98615.78;;;27.19;57.19
68988;BME280;56038;46.080;11.116;2023-07-02T19:16:23;98621.16;;;27.19;57.53
68988;BME280;56038;46.080;11.116;2023-07-02T19:21:27;98629.75;;;27.14;57.78
68988;BME280;56038;46.080;11.116;2023-07-02T19:26:29;98631.50;;;27.07;57.79
68988;BME280;56038;46.080;11.116;2023-07-02T19:31:31;98638.44;;;27.02;57.89
68988;BME280;56038;46.080;11.116;2023-07-02T19:36:34;98650.28;;;26.70;58.59
68988;BME280;56038;46.080;11.116;2023-07-02T19:41:36;98662.13;;;26.38;59.88
68988;BME280;56038;46.080;11.116;2023-07-02T19:46:38;98670.47;;;26.58;59.47
68988;BME280;56038;46.080;11.116;2023-07-02T19:51:41;98665.00;;;26.51;59.73
68988;BME280;56038;46.080;11.116;2023-07-02T19:56:47;98673.22;;;26.26;60.35
68988;BME280;56038;46.080;11.116;2023-07-02T20:01:49;98682.63;;;26.22;60.17
68988;BME280;56038;46.080;11.116;2023-07-02T20:06:52;98685.22;;;26.08;60.72
68988;BME280;56038;46.080;11.116;2023-07-02T20:11:54;98699.47;;;26.00;61.06
68988;BME280;56038;46.080;11.116;2023-07-02T20:16:55;98710.53;;;25.97;61.05
68988;BME280;56038;46.080;11.116;2023-07-02T20:21:59;98707.22;;;25.87;61.74
68988;BME280;56038;46.080;11.116;2023-07-02T20:27:01;98707.75;;;25.82;61.54
68988;BME280;56038;46.080;11.116;2023-07-02T20:32:03;98719.19;;;25.76;62.06
68988;BME280;56038;46.080;11.116;2023-07-02T20:37:06;98730.72;;;25.77;61.68
68988;BME280;56038;46.080;11.116;2023-07-02T20:42:09;98733.69;;;25.82;61.43
68988;BME280;56038;46.080;11.116;2023-07-02T20:47:10;98737.72;;;25.78;61.82
68988;BME280;56038;46.080;11.116;2023-07-02T20:52:13;98746.09;;;25.75;62.12
68988;BME280;56038;46.080;11.116;2023-07-02T20:57:15;98741.06;;;25.72;62.09
68988;BME280;56038;46.080;11.116;2023-07-02T21:02:17;98737.75;;;25.61;63.02
68988;BME280;56038;46.080;11.116;2023-07-02T21:07:21;98743.28;;;25.60;62.91
68988;BME280;56038;46.080;11.116;2023-07-02T21:12:23;98741.44;;;25.60;63.10
68988;BME280;56038;46.080;11.116;2023-07-02T21:17:25;98746.44;;;25.63;62.87
68988;BME280;56038;46.080;11.116;2023-07-02T21:22:28;98751.78;;;25.63;63.04
68988;BME280;56038;46.080;11.116;2023-07-02T21:27:30;98754.16;;;25.50;64.02
68988;BME280;56038;46.080;11.116;2023-07-02T21:32:33;98762.19;;;25.50;63.65
68988;BME280;56038;46.080;11.116;2023-07-02T21:37:36;98767.06;;;25.47;63.81
68988;BME280;56038;46.080;11.116;2023-07-02T21:42:38;98774.06;;;25.48;63.92
68988;BME280;56038;46.080;11.116;2023-07-02T21:47:40;98779.28;;;25.41;64.43
68988;BME280;56038;46.080;11.116;2023-07-02T21:52:43;98783.63;;;25.34;64.80
68988;BME280;56038;46.080;11.116;2023-07-02T21:57:45;98771.25;;;25.33;64.74
68988;BME280;56038;46.080;11.116;2023-07-02T22:02:46;98779.44;;;25.31;64.94
68988;BME280;56038;46.080;11.116;2023-07-02T22:07:50;98779.94;;;25.35;64.50
68988;BME280;56038;46.080;11.116;2023-07-02T22:12:52;98792.34;;;25.28;65.60
68988;BME280;56038;46.080;11.116;2023-07-02T22:17:53;98773.28;;;25.31;64.95
68988;BME280;56038;46.080;11.116;2023-07-02T22:23:04;98776.59;;;25.33;65.07
68988;BME280;56038;46.080;11.116;2023-07-02T22:28:05;98773.63;;;25.28;65.45
68988;BME280;56038;46.080;11.116;2023-07-02T22:33:07;98769.75;;;25.22;65.56
68988;BME280;56038;46.080;11.116;2023-07-02T22:38:10;98771.13;;;25.18;66.14
68988;BME280;56038;46.080;11.116;2023-07-02T22:43:12;98776.47;;;25.10;66.42
68988;BME280;56038;46.080;11.116;2023-07-02T22:48:14;98777.50;;;25.09;66.34
68988;BME280;56038;46.080;11.116;2023-07-02T22:53:18;98773.28;;;25.06;66.87
68988;BME280;56038;46.080;11.116;2023-07-02T22:58:21;98772.28;;;24.99;67.68
68988;BME280;56038;46.080;11.116;2023-07-02T23:03:22;98772.28;;;24.99;67.38
68988;BME280;56038;46.080;11.116;2023-07-02T23:08:25;98778.97;;;25.03;67.11
68988;BME280;56038;46.080;11.116;2023-07-02T23:13:27;98770.75;;;24.89;68.18
68988;BME280;56038;46.080;11.116;2023-07-02T23:18:29;98769.09;;;24.88;68.16
68988;BME280;56038;46.080;11.116;2023-07-02T23:23:36;98770.28;;;24.93;67.64
68988;BME280;56038;46.080;11.116;2023-07-02T23:28:39;98776.59;;;24.92;67.68
68988;BME280;56038;46.080;11.116;2023-07-02T23:33:41;98777.94;;;24.88;68.05
68988;BME280;56038;46.080;11.116;2023-07-02T23:38:44;98767.09;;;24.82;68.13
68988;BME280;56038;46.080;11.116;2023-07-02T23:43:47;98772.94;;;24.69;69.46
68988;BME280;56038;46.080;11.116;2023-07-02T23:48:49;98772.09;;;24.68;69.47
68988;BME280;56038;46.080;11.116;2023-07-02T23:53:52;98774.44;;;24.63;69.43
68988;BME280;56038;46.080;11.116;2023-07-02T23:58:55;98774.25;;;24.57;70.19
